Time;durP1;ratioP1;P1;durP2;ratioP2;P2;SDS_P1;SDS_P2;PMS_P1;PMS_P2;Temp;Humidity;BMP_temperature;BMP_pressure;BME280_temperature;BME280_humidity;BME280_pressure;Samples;Min_cycle;Max_cycle;Signal;HPM_P1;HPM_P2
2024/01/01 00:01:08;;;;;;;69.27;33.23;;;3.60;99.90;;;;;;5031249;28;20198;-73
2024/01/01 00:03:55;;;;;;;70.23;33.60;;;3.60;99.90;;;;;;5032304;28;20327;-73
2024/01/01 00:06:42;;;;;;;69.87;34.37;;;3.50;99.90;;;;;;5032152;28;20234;-73
2024/01/01 00:09:29;;;;;;;69.13;35.23;;;3.50;99.90;;;;;;5030884;28;20610;-73
2024/01/01 00:12:17;;;;;;;75.77;37.43;;;3.50;99.90;;;;;;5032589;28;20296;-73
2024/01/01 00:15:05;;;;;;;81.67;38.33;;;3.50;99.90;;;;;;5032674;28;20199;-73
2024/01/01 00:17:52;;;;;;;84.23;40.30;;;3.60;99.90;;;;;;5032150;28;20257;-73
2024/01/01 00:20:39;;;;;;;90.40;43.33;;;3.60;99.90;;;;;;5032071;28;20570;-73
2024/01/01 00:23:28;;;;;;;98.03;46.17;;;3.60;99.90;;;;;;5035113;28;20300;-73
2024/01/01 00:26:15;;;;;;;93.17;43.80;;;3.50;99.90;;;;;;5035178;28;20293;-73
2024/01/01 00:29:03;;;;;;;92.83;44.63;;;3.50;99.90;;;;;;5036211;28;20202;-73
2024/01/01 00:31:52;;;;;;;92.53;43.03;;;3.50;99.90;;;;;;5034810;28;20198;-74
2024/01/01 00:34:39;;;;;;;93.70;41.53;;;3.50;99.90;;;;;;5036711;28;20196;-73
2024/01/01 00:37:26;;;;;;;83.43;42.23;;;3.50;99.90;;;;;;5035443;28;20660;-72
2024/01/01 00:40:14;;;;;;;83.33;39.90;;;3.50;99.90;;;;;;5035459;28;20204;-72
2024/01/01 00:43:03;;;;;;;85.90;42.27;;;3.50;99.90;;;;;;5033827;28;20570;-73
2024/01/01 00:45:50;;;;;;;77.73;38.27;;;3.50;99.90;;;;;;5035362;28;20195;-73
2024/01/01 00:48:38;;;;;;;82.57;38.37;;;3.50;99.90;;;;;;5035218;28;20191;-73
2024/01/01 00:51:26;;;;;;;82.40;38.10;;;3.50;99.90;;;;;;5035429;28;20203;-73
2024/01/01 00:54:13;;;;;;;76.50;37.43;;;3.50;99.90;;;;;;5034280;28;20206;-72
2024/01/01 00:57:01;;;;;;;75.03;36.93;;;3.50;99.90;;;;;;5032855;28;20226;-73
2024/01/01 00:59:48;;;;;;;76.30;37.53;;;3.50;99.90;;;;;;5034472;28;20281;-73
2024/01/01 01:02:36;;;;;;;70.93;34.80;;;3.50;99.90;;;;;;5047239;28;20206;-73
2024/01/01 01:05:24;;;;;;;75.50;35.57;;;3.40;99.90;;;;;;5034488;28;20320;-73
2024/01/01 01:08:11;;;;;;;68.10;35.30;;;3.50;99.90;;;;;;5035966;28;20287;-73
2024/01/01 01:10:59;;;;;;;72.40;34.60;;;3.40;99.90;;;;;;5034877;28;20229;-73
2024/01/01 01:13:46;;;;;;;69.23;33.07;;;3.40;99.90;;;;;;5035033;28;20645;-73
2024/01/01 01:16:33;;;;;;;71.33;33.97;;;3.40;99.90;;;;;;5034803;28;20592;-73
2024/01/01 01:19:21;;;;;;;67.37;32.60;;;3.40;99.90;;;;;;5033753;28;20227;-72
2024/01/01 01:22:08;;;;;;;68.53;31.20;;;3.50;99.90;;;;;;5034670;28;20576;-73
2024/01/01 01:24:56;;;;;;;65.90;30.97;;;3.50;99.90;;;;;;5034000;28;20362;-73
2024/01/01 01:27:45;;;;;;;60.80;29.90;;;3.40;99.90;;;;;;5035884;28;20330;-73
2024/01/01 01:30:33;;;;;;;62.30;28.17;;;3.40;99.90;;;;;;5034231;28;20195;-73
2024/01/01 01:33:21;;;;;;;61.87;29.00;;;3.40;99.90;;;;;;5032983;28;20651;-73
2024/01/01 01:36:14;;;;;;;57.63;28.87;;;3.50;99.90;;;;;;5033185;28;20209;-73
2024/01/01 01:39:01;;;;;;;60.73;28.43;;;3.50;99.90;;;;;;5033827;28;20195;-73
2024/01/01 01:41:48;;;;;;;60.60;27.73;;;3.50;99.90;;;;;;5035145;28;20221;-73
2024/01/01 01:44:36;;;;;;;54.40;26.33;;;3.50;99.90;;;;;;5034219;28;20591;-73
2024/01/01 01:47:24;;;;;;;55.30;26.77;;;3.50;99.90;;;;;;5034186;28;20238;-73
2024/01/01 01:50:12;;;;;;;54.17;26.77;;;3.50;99.90;;;;;;5034115;28;20267;-73
2024/01/01 01:52:59;;;;;;;50.77;25.57;;;3.50;99.90;;;;;;5034391;28;20620;-73
2024/01/01 01:55:47;;;;;;;54.57;26.10;;;3.50;99.90;;;;;;5033800;28;20261;-73
2024/01/01 01:58:34;;;;;;;50.90;24.70;;;3.50;99.90;;;;;;5034090;28;20199;-73
2024/01/01 02:01:22;;;;;;;52.13;25.40;;;3.50;99.90;;;;;;5032495;28;20329;-73
2024/01/01 02:04:09;;;;;;;53.30;25.90;;;3.50;99.90;;;;;;5033347;28;20697;-73
2024/01/01 02:06:57;;;;;;;52.30;24.93;;;3.50;99.90;;;;;;5033911;28;20234;-73
2024/01/01 02:09:44;;;;;;;51.13;24.77;;;3.40;99.90;;;;;;5034167;28;20202;-73
2024/01/01 02:12:31;;;;;;;55.40;26.57;;;3.40;99.90;;;;;;5033726;28;20594;-72
2024/01/01 02:15:22;;;;;;;51.93;24.40;;;3.50;99.90;;;;;;5033252;28;20203;-73
2024/01/01 02:18:09;;;;;;;51.77;24.50;;;3.40;99.90;;;;;;5032640;28;20666;-73
2024/01/01 02:20:57;;;;;;;50.67;24.57;;;3.40;99.90;;;;;;5032568;28;20218;-73
2024/01/01 02:23:44;;;;;;;47.10;24.00;;;3.40;99.90;;;;;;5032650;28;20304;-73
2024/01/01 02:26:31;;;;;;;53.73;23.90;;;3.40;99.90;;;;;;5033607;28;20219;-73
2024/01/01 02:29:19;;;;;;;50.17;24.33;;;3.30;99.90;;;;;;5032864;28;20190;-73
2024/01/01 02:32:06;;;;;;;47.37;23.43;;;3.40;99.90;;;;;;5032987;28;20194;-73
2024/01/01 02:34:54;;;;;;;54.90;25.07;;;3.30;99.90;;;;;;5034536;28;20203;-73
2024/01/01 02:37:41;;;;;;;49.17;24.60;;;3.30;99.90;;;;;;5032873;28;20197;-73
2024/01/01 02:40:29;;;;;;;50.47;24.23;;;3.30;99.90;;;;;;5033346;28;20678;-73
2024/01/01 02:43:16;;;;;;;48.80;24.23;;;3.30;99.90;;;;;;5032626;28;20222;-73
2024/01/01 02:46:03;;;;;;;49.60;24.53;;;3.30;99.90;;;;;;5033007;28;20200;-73
2024/01/01 02:48:51;;;;;;;44.90;22.90;;;3.30;99.90;;;;;;5032505;28;20687;-73
2024/01/01 02:51:42;;;;;;;49.33;24.67;;;3.20;99.90;;;;;;5033294;28;20603;-73
2024/01/01 02:54:29;;;;;;;49.43;23.87;;;3.20;99.90;;;;;;5032608;28;20208;-73
2024/01/01 02:57:17;;;;;;;49.83;24.17;;;3.20;99.90;;;;;;5031958;28;20211;-73
2024/01/01 03:00:08;;;;;;;46.33;23.07;;;3.20;99.90;;;;;;5032871;28;20206;-72
2024/01/01 03:02:56;;;;;;;46.27;23.10;;;3.10;99.90;;;;;;5032763;28;20199;-72
2024/01/01 03:05:43;;;;;;;49.93;24.23;;;3.10;99.90;;;;;;5031777;28;20286;-73
2024/01/01 03:08:31;;;;;;;47.83;23.50;;;3.10;99.90;;;;;;5033113;28;20191;-73
2024/01/01 03:11:18;;;;;;;54.10;24.93;;;3.10;99.90;;;;;;5032134;28;20222;-73
2024/01/01 03:14:06;;;;;;;46.97;23.30;;;3.00;99.90;;;;;;5032235;28;20285;-73
2024/01/01 03:16:53;;;;;;;48.97;23.53;;;3.10;99.90;;;;;;5032430;28;20628;-73
2024/01/01 03:19:41;;;;;;;49.77;23.50;;;3.00;99.90;;;;;;5032163;28;20191;-73
2024/01/01 03:22:28;;;;;;;47.53;22.87;;;3.00;99.90;;;;;;5031579;28;20650;-73
2024/01/01 03:25:16;;;;;;;49.60;23.57;;;3.00;99.90;;;;;;5033487;28;20221;-73
2024/01/01 03:28:03;;;;;;;47.40;23.07;;;3.00;99.90;;;;;;5031956;28;20202;-73
2024/01/01 03:30:51;;;;;;;47.13;22.90;;;3.00;99.90;;;;;;5033850;28;20197;-72
2024/01/01 03:33:38;;;;;;;44.70;22.20;;;3.10;99.90;;;;;;5033611;28;20575;-73
2024/01/01 03:36:26;;;;;;;51.47;22.87;;;3.00;99.90;;;;;;5031633;28;20648;-73
2024/01/01 03:39:13;;;;;;;48.47;22.60;;;3.10;99.90;;;;;;5031953;28;20714;-72
2024/01/01 03:42:01;;;;;;;45.80;22.83;;;3.00;99.90;;;;;;5032188;28;20630;-72
2024/01/01 03:44:48;;;;;;;47.70;22.27;;;3.10;99.90;;;;;;5031717;28;20302;-73
2024/01/01 03:47:36;;;;;;;47.20;22.10;;;3.10;99.90;;;;;;5032441;28;20343;-73
2024/01/01 03:50:23;;;;;;;45.90;22.33;;;3.10;99.90;;;;;;5032233;28;20195;-72
2024/01/01 03:53:11;;;;;;;44.50;21.97;;;3.10;99.90;;;;;;5031356;28;20280;-73
2024/01/01 03:55:58;;;;;;;46.00;21.67;;;3.10;99.90;;;;;;5032556;28;20215;-73
2024/01/01 03:58:46;;;;;;;47.13;21.87;;;3.10;99.90;;;;;;5037615;28;20194;-72
2024/01/01 04:01:35;;;;;;;45.60;23.20;;;3.10;99.90;;;;;;5036296;28;20665;-73
2024/01/01 04:04:22;;;;;;;44.47;21.47;;;3.10;99.90;;;;;;5037486;28;20226;-73
2024/01/01 04:07:10;;;;;;;45.33;21.60;;;3.10;99.90;;;;;;5035934;28;20238;-73
2024/01/01 04:09:57;;;;;;;44.83;21.60;;;3.10;99.90;;;;;;5036089;28;20207;-73
2024/01/01 04:12:45;;;;;;;48.17;22.67;;;3.10;99.90;;;;;;5036193;28;20292;-73
2024/01/01 04:15:32;;;;;;;43.53;21.50;;;3.10;99.90;;;;;;5034938;28;20207;-73
2024/01/01 04:18:20;;;;;;;45.27;21.53;;;3.20;99.90;;;;;;5034609;28;20243;-72
2024/01/01 04:21:07;;;;;;;41.87;21.07;;;3.20;99.90;;;;;;5035939;28;20209;-73
2024/01/01 04:23:57;;;;;;;47.77;22.67;;;3.20;99.90;;;;;;5035152;28;20222;-73
2024/01/01 04:26:45;;;;;;;45.23;21.97;;;3.20;99.90;;;;;;5036953;28;20223;-73
2024/01/01 04:29:32;;;;;;;47.10;22.70;;;3.20;99.90;;;;;;5034790;28;20198;-72
2024/01/01 04:32:20;;;;;;;47.13;22.17;;;3.30;99.90;;;;;;5034807;28;20192;-72
2024/01/01 04:35:08;;;;;;;45.60;22.07;;;3.30;99.90;;;;;;5035274;28;20195;-72
2024/01/01 04:37:55;;;;;;;44.67;22.90;;;3.30;99.90;;;;;;5035087;28;20210;-72
2024/01/01 04:40:43;;;;;;;44.40;22.30;;;3.40;99.90;;;;;;5034463;28;20270;-72
2024/01/01 04:43:30;;;;;;;43.93;21.93;;;3.30;99.90;;;;;;5035032;28;20574;-73
2024/01/01 04:46:18;;;;;;;43.23;22.07;;;3.30;99.90;;;;;;5035667;28;20189;-72
2024/01/01 04:49:05;;;;;;;47.50;23.10;;;3.40;99.90;;;;;;5034910;28;20202;-72
2024/01/01 04:51:53;;;;;;;45.03;22.57;;;3.40;99.90;;;;;;5034755;28;20666;-72
2024/01/01 04:54:40;;;;;;;49.13;22.70;;;3.40;99.90;;;;;;5035655;28;20211;-72
2024/01/01 04:57:27;;;;;;;49.47;23.13;;;3.40;99.90;;;;;;5034733;28;20226;-72
2024/01/01 05:00:15;;;;;;;42.63;22.20;;;3.40;99.90;;;;;;5036349;28;20205;-72
2024/01/01 05:03:03;;;;;;;42.27;21.93;;;3.50;99.90;;;;;;5036364;28;20199;-72
2024/01/01 05:05:50;;;;;;;50.50;23.13;;;3.50;99.90;;;;;;5035609;28;20239;-72
2024/01/01 05:08:38;;;;;;;50.00;22.57;;;3.50;99.90;;;;;;5034134;28;20694;-72
2024/01/01 05:11:25;;;;;;;44.97;22.03;;;3.60;99.90;;;;;;5035560;28;20301;-72
2024/01/01 05:14:12;;;;;;;52.03;22.67;;;3.60;99.90;;;;;;5033647;28;20306;-72
2024/01/01 05:17:00;;;;;;;46.30;21.87;;;3.60;99.90;;;;;;5034815;28;20260;-72
2024/01/01 05:19:50;;;;;;;42.63;21.10;;;3.60;99.90;;;;;;5034449;28;20249;-72
2024/01/01 05:22:37;;;;;;;48.13;23.13;;;3.60;99.90;;;;;;5034703;28;20219;-72
2024/01/01 05:25:25;;;;;;;49.40;22.63;;;3.70;99.90;;;;;;5034097;28;20219;-72
2024/01/01 05:28:12;;;;;;;48.77;22.60;;;3.70;99.90;;;;;;5034779;28;20550;-72
2024/01/01 05:30:59;;;;;;;49.00;23.17;;;3.70;99.90;;;;;;5033575;28;20191;-72
2024/01/01 05:33:47;;;;;;;49.90;22.83;;;3.70;99.90;;;;;;5034429;28;20200;-73
2024/01/01 05:36:35;;;;;;;46.33;22.30;;;3.80;99.90;;;;;;5034951;28;20203;-72
2024/01/01 05:39:22;;;;;;;48.27;23.07;;;3.80;99.90;;;;;;5034473;28;20206;-73
2024/01/01 05:42:10;;;;;;;46.57;21.90;;;3.80;99.90;;;;;;5034025;28;20247;-73
2024/01/01 05:44:57;;;;;;;47.67;22.10;;;3.80;99.90;;;;;;5035061;28;20338;-72
2024/01/01 05:47:45;;;;;;;46.70;23.03;;;3.80;99.90;;;;;;5034516;28;20207;-72
2024/01/01 05:50:32;;;;;;;52.07;24.53;;;3.80;99.90;;;;;;5034354;28;20645;-73
2024/01/01 05:53:20;;;;;;;50.67;22.83;;;3.70;99.90;;;;;;5033098;28;20192;-72
2024/01/01 05:56:07;;;;;;;50.87;23.67;;;3.70;99.90;;;;;;5034855;28;20219;-72
2024/01/01 05:58:55;;;;;;;55.70;24.77;;;3.70;99.90;;;;;;5033108;28;20667;-72
2024/01/01 06:01:42;;;;;;;56.23;24.40;;;3.80;99.90;;;;;;5033473;28;20191;-72
2024/01/01 06:04:30;;;;;;;58.30;24.87;;;3.80;99.90;;;;;;5034305;28;20584;-72
2024/01/01 06:07:17;;;;;;;60.10;26.23;;;3.90;99.90;;;;;;5033903;28;20227;-72
2024/01/01 06:10:04;;;;;;;60.20;27.43;;;3.90;99.90;;;;;;5032483;28;20268;-73
2024/01/01 06:12:52;;;;;;;59.90;26.27;;;3.80;99.90;;;;;;5032916;28;20753;-72
2024/01/01 06:15:40;;;;;;;58.53;26.23;;;3.80;99.90;;;;;;5033195;28;20203;-72
2024/01/01 06:18:27;;;;;;;64.33;27.33;;;3.80;99.90;;;;;;5032743;28;20227;-72
2024/01/01 06:21:16;;;;;;;67.90;26.97;;;3.90;99.90;;;;;;5034878;28;20196;-73
2024/01/01 06:24:04;;;;;;;67.10;27.40;;;3.90;99.90;;;;;;5034113;28;20201;-72
2024/01/01 06:26:52;;;;;;;62.27;26.07;;;3.90;99.90;;;;;;5033284;28;20257;-73
2024/01/01 06:29:39;;;;;;;59.23;25.63;;;3.90;99.90;;;;;;5032867;28;20207;-73
2024/01/01 06:32:26;;;;;;;54.87;25.17;;;3.90;99.90;;;;;;5032835;28;20230;-73
2024/01/01 06:35:14;;;;;;;52.93;24.13;;;4.00;99.90;;;;;;5031924;28;20200;-73
2024/01/01 06:38:02;;;;;;;65.30;27.33;;;4.00;99.90;;;;;;5033337;28;20199;-73
2024/01/01 06:40:50;;;;;;;63.83;26.80;;;3.90;99.90;;;;;;5032216;28;20232;-72
2024/01/01 06:43:38;;;;;;;67.43;27.20;;;3.80;99.90;;;;;;5034148;28;20266;-73
2024/01/01 06:46:25;;;;;;;64.70;26.77;;;3.80;99.90;;;;;;5033186;28;20199;-72
2024/01/01 06:49:12;;;;;;;61.83;27.37;;;3.60;99.90;;;;;;5033143;28;20211;-72
2024/01/01 06:52:00;;;;;;;67.17;27.73;;;3.60;99.90;;;;;;5033306;28;20639;-73
2024/01/01 06:54:48;;;;;;;62.43;28.00;;;3.70;99.90;;;;;;5032434;28;20201;-73
2024/01/01 06:57:35;;;;;;;66.53;27.47;;;3.70;99.90;;;;;;5032853;28;20234;-73
2024/01/01 07:00:23;;;;;;;61.83;26.77;;;3.80;99.90;;;;;;5031906;28;20195;-72
2024/01/01 07:03:10;;;;;;;61.00;26.80;;;3.80;99.90;;;;;;5032348;28;20192;-72
2024/01/01 07:05:58;;;;;;;63.43;26.93;;;3.90;99.90;;;;;;5032118;28;20239;-73
2024/01/01 07:08:45;;;;;;;61.37;27.97;;;3.90;99.90;;;;;;5033569;28;20210;-72
2024/01/01 07:11:32;;;;;;;62.77;28.33;;;3.90;99.90;;;;;;5031810;28;20306;-72
2024/01/01 07:14:20;;;;;;;62.37;26.83;;;4.00;99.90;;;;;;5033505;28;20560;-72
2024/01/01 07:17:07;;;;;;;67.37;27.73;;;3.90;99.90;;;;;;5031694;28;20199;-72
2024/01/01 07:19:55;;;;;;;60.27;26.33;;;3.90;99.90;;;;;;5032015;28;20349;-72
2024/01/01 07:22:42;;;;;;;69.53;28.23;;;3.90;99.90;;;;;;5029993;28;20230;-73
2024/01/01 07:25:30;;;;;;;63.17;27.10;;;3.90;99.90;;;;;;5031433;28;20216;-73
2024/01/01 07:28:17;;;;;;;65.47;27.10;;;3.90;99.90;;;;;;5030336;28;20198;-73
2024/01/01 07:31:05;;;;;;;63.43;26.60;;;3.90;99.90;;;;;;5030680;28;20337;-73
2024/01/01 07:33:52;;;;;;;63.07;25.90;;;3.90;99.90;;;;;;5032336;28;20196;-73
2024/01/01 07:36:42;;;;;;;66.57;26.07;;;3.90;99.90;;;;;;5031528;28;20695;-72
2024/01/01 07:39:30;;;;;;;62.53;26.10;;;4.00;99.90;;;;;;5031893;28;20196;-72
2024/01/01 07:42:18;;;;;;;66.13;26.97;;;4.00;99.90;;;;;;5031888;28;20215;-72
2024/01/01 07:45:05;;;;;;;72.37;26.77;;;3.90;99.90;;;;;;5031526;28;20306;-72
2024/01/01 07:47:52;;;;;;;64.80;26.20;;;3.90;99.90;;;;;;5030579;28;20543;-72
2024/01/01 07:50:40;;;;;;;65.20;26.77;;;3.90;99.90;;;;;;5032202;28;20586;-72
2024/01/01 07:53:28;;;;;;;74.83;26.93;;;3.90;99.90;;;;;;5032655;28;20192;-72
2024/01/01 07:56:15;;;;;;;71.87;27.27;;;3.90;99.90;;;;;;5031880;28;20612;-72
2024/01/01 07:59:02;;;;;;;71.17;27.40;;;3.90;99.90;;;;;;5031711;28;20677;-72
2024/01/01 08:01:50;;;;;;;71.77;28.50;;;3.90;99.90;;;;;;5033216;28;20210;-72
2024/01/01 08:04:37;;;;;;;71.27;27.73;;;3.90;99.90;;;;;;5031881;28;20213;-72
2024/01/01 08:07:25;;;;;;;66.53;27.27;;;3.90;99.90;;;;;;5031092;28;20191;-72
2024/01/01 08:10:12;;;;;;;69.27;26.53;;;3.90;99.90;;;;;;5030640;28;20230;-72
2024/01/01 08:13:00;;;;;;;70.23;28.20;;;3.90;99.90;;;;;;5030530;28;20200;-72
2024/01/01 08:15:48;;;;;;;68.17;27.50;;;3.90;99.90;;;;;;5030395;28;20226;-72
2024/01/01 08:18:35;;;;;;;70.20;27.67;;;3.90;99.90;;;;;;5030280;28;20234;-72
2024/01/01 08:21:23;;;;;;;69.27;28.27;;;3.90;99.90;;;;;;5030568;28;20198;-72
2024/01/01 08:24:10;;;;;;;69.63;27.03;;;3.90;99.90;;;;;;5031084;28;20316;-72
2024/01/01 08:26:57;;;;;;;66.43;27.60;;;3.90;99.90;;;;;;5031415;28;20211;-72
2024/01/01 08:29:45;;;;;;;64.53;26.80;;;3.90;99.90;;;;;;5030528;28;20203;-72
2024/01/01 08:32:33;;;;;;;69.23;27.33;;;3.90;99.90;;;;;;5031222;28;20210;-72
2024/01/01 08:35:20;;;;;;;63.67;26.83;;;3.90;99.90;;;;;;5031422;28;20198;-72
2024/01/01 08:38:08;;;;;;;61.73;26.50;;;4.00;99.90;;;;;;5031974;28;20204;-72
2024/01/01 08:40:56;;;;;;;62.07;26.30;;;3.90;99.90;;;;;;5031915;28;20306;-73
2024/01/01 08:43:43;;;;;;;59.63;25.33;;;3.90;99.90;;;;;;5033561;28;20651;-72
2024/01/01 08:46:30;;;;;;;65.17;26.43;;;3.90;99.90;;;;;;5035862;28;20247;-72
2024/01/01 08:49:18;;;;;;;65.20;28.20;;;3.90;99.90;;;;;;5035138;28;20282;-72
2024/01/01 08:52:05;;;;;;;65.13;26.07;;;3.90;99.90;;;;;;5034720;28;20204;-72
2024/01/01 08:54:52;;;;;;;59.83;26.00;;;3.90;99.90;;;;;;5034674;28;20203;-72
2024/01/01 08:57:41;;;;;;;61.03;25.97;;;3.90;99.90;;;;;;5035110;28;20283;-73
2024/01/01 09:00:29;;;;;;;56.30;25.10;;;4.00;99.90;;;;;;5034416;28;20191;-72
2024/01/01 09:03:16;;;;;;;57.23;25.60;;;3.90;99.90;;;;;;5035077;28;20211;-72
2024/01/01 09:06:04;;;;;;;56.13;25.27;;;3.90;99.90;;;;;;5035873;28;20257;-72
2024/01/01 09:08:51;;;;;;;52.17;24.23;;;3.90;99.90;;;;;;5036310;28;20202;-72
2024/01/01 09:11:38;;;;;;;52.70;24.63;;;3.90;99.90;;;;;;5034764;28;20243;-72
2024/01/01 09:14:26;;;;;;;52.20;24.70;;;3.90;99.90;;;;;;5034308;28;20196;-72
2024/01/01 09:17:13;;;;;;;56.33;24.73;;;3.90;99.90;;;;;;5034843;28;20195;-72
2024/01/01 09:20:03;;;;;;;51.80;24.40;;;3.90;99.90;;;;;;5035261;28;20203;-72
2024/01/01 09:22:51;;;;;;;53.30;23.80;;;3.80;99.90;;;;;;5034141;28;20611;-72
2024/01/01 09:25:42;;;;;;;55.57;23.93;;;3.80;99.90;;;;;;5034497;28;20222;-72
2024/01/01 09:28:29;;;;;;;53.73;24.13;;;3.80;99.90;;;;;;5035093;28;20199;-73
2024/01/01 09:31:16;;;;;;;52.10;23.67;;;3.80;99.90;;;;;;5034792;28;20223;-72
2024/01/01 09:34:06;;;;;;;52.27;24.03;;;3.80;99.90;;;;;;5035018;28;20198;-72
2024/01/01 09:36:53;;;;;;;50.83;23.43;;;3.80;99.90;;;;;;5034462;28;20202;-72
2024/01/01 09:39:49;;;;;;;52.43;23.60;;;3.80;99.90;;;;;;5035226;28;20190;-73
2024/01/01 09:42:46;;;;;;;49.50;23.47;;;3.80;99.90;;;;;;5034276;28;20675;-73
2024/01/01 09:45:37;;;;;;;55.40;24.27;;;3.80;99.90;;;;;;5034353;28;20225;-73
2024/01/01 09:48:24;;;;;;;49.93;23.80;;;3.90;99.90;;;;;;5032810;28;20232;-73
2024/01/01 09:51:12;;;;;;;48.70;23.90;;;3.80;99.90;;;;;;5033817;28;20612;-73
2024/01/01 09:54:01;;;;;;;50.57;23.43;;;3.80;99.90;;;;;;5033477;28;20210;-73
2024/01/01 09:56:48;;;;;;;53.60;23.80;;;3.80;99.90;;;;;;5033378;28;20818;-73
2024/01/01 09:59:36;;;;;;;52.67;24.10;;;3.80;99.90;;;;;;5034158;28;20273;-72
2024/01/01 10:02:26;;;;;;;46.27;22.43;;;3.80;99.90;;;;;;5032227;28;20655;-73
2024/01/01 10:05:14;;;;;;;45.53;23.20;;;3.90;99.90;;;;;;5033298;28;20240;-73
2024/01/01 10:08:13;;;;;;;46.00;21.90;;;3.90;99.90;;;;;;5033169;28;20206;-73
2024/01/01 10:11:20;;;;;;;42.77;21.43;;;4.00;99.90;;;;;;5032596;28;20207;-73
2024/01/01 10:14:11;;;;;;;43.63;21.33;;;4.00;99.90;;;;;;5033671;28;20205;-73
2024/01/01 10:17:12;;;;;;;48.87;22.67;;;4.00;99.90;;;;;;5033101;28;20284;-73
2024/01/01 10:20:01;;;;;;;45.87;21.63;;;4.00;99.90;;;;;;5032072;28;20612;-73
2024/01/01 10:22:49;;;;;;;44.17;21.90;;;4.00;99.90;;;;;;5033202;28;20210;-73
2024/01/01 10:25:36;;;;;;;42.47;21.70;;;4.10;99.90;;;;;;5032911;28;20682;-73
2024/01/01 10:28:24;;;;;;;41.93;21.30;;;4.10;99.90;;;;;;5033450;28;20193;-73
2024/01/01 10:31:13;;;;;;;45.00;21.77;;;4.00;99.90;;;;;;5035017;28;20199;-73
2024/01/01 10:34:03;;;;;;;43.13;21.40;;;4.00;99.90;;;;;;5033614;28;20196;-73
2024/01/01 10:36:51;;;;;;;43.80;20.77;;;3.80;99.90;;;;;;5032726;28;20199;-73
2024/01/01 10:39:39;;;;;;;41.37;20.67;;;3.80;99.90;;;;;;5032769;28;20209;-73
2024/01/01 10:42:31;;;;;;;38.53;19.87;;;3.80;99.90;;;;;;5046591;28;20309;-73
2024/01/01 10:45:19;;;;;;;43.63;22.10;;;3.70;99.90;;;;;;5032643;28;20222;-73
2024/01/01 10:48:06;;;;;;;40.50;20.20;;;3.60;99.90;;;;;;5032561;28;20595;-73
2024/01/01 10:51:24;;;;;;;42.33;20.07;;;3.70;99.90;;;;;;5032805;28;20644;-73
2024/01/01 10:54:43;;;;;;;40.70;19.73;;;3.70;99.90;;;;;;5033495;28;20200;-73
2024/01/01 10:57:42;;;;;;;40.40;20.17;;;3.60;99.90;;;;;;5031588;28;20235;-73
2024/01/01 11:01:02;;;;;;;41.90;20.50;;;3.60;99.90;;;;;;5032609;28;20270;-74
2024/01/01 11:03:51;;;;;;;37.70;19.77;;;3.60;99.90;;;;;;5033857;28;20206;-74
2024/01/01 11:06:44;;;;;;;43.23;20.73;;;3.60;99.90;;;;;;5031790;28;20354;-74
2024/01/01 11:09:32;;;;;;;42.27;20.70;;;3.60;99.90;;;;;;5033545;28;20199;-74
2024/01/01 11:12:34;;;;;;;39.43;19.73;;;3.60;99.90;;;;;;5031102;28;20220;-74
2024/01/01 11:15:40;;;;;;;38.67;19.20;;;3.60;99.90;;;;;;5030841;28;20615;-74
2024/01/01 11:18:34;;;;;;;40.87;20.80;;;3.60;99.90;;;;;;5031931;28;20282;-73
2024/01/01 11:21:31;;;;;;;44.23;22.13;;;3.70;99.90;;;;;;5033907;28;20277;-74
2024/01/01 11:24:41;;;;;;;41.13;20.27;;;3.70;99.90;;;;;;5032053;28;20302;-74
2024/01/01 11:27:47;;;;;;;43.23;20.83;;;3.50;99.90;;;;;;5031800;28;20218;-73
2024/01/01 11:30:39;;;;;;;42.47;20.93;;;3.60;99.90;;;;;;5032429;28;20233;-74
2024/01/01 11:33:27;;;;;;;40.17;20.77;;;3.60;99.90;;;;;;5032309;28;20194;-73
2024/01/01 11:36:15;;;;;;;44.03;21.63;;;3.50;99.90;;;;;;5032462;28;20199;-73
2024/01/01 11:39:02;;;;;;;45.60;21.97;;;3.40;99.90;;;;;;5032359;28;20247;-73
2024/01/01 11:41:50;;;;;;;47.13;22.60;;;3.40;99.90;;;;;;5031369;28;20663;-73
2024/01/01 11:44:37;;;;;;;43.07;21.57;;;3.40;99.90;;;;;;5032137;28;20261;-73
2024/01/01 11:47:25;;;;;;;45.90;22.87;;;3.50;99.90;;;;;;5031038;28;20678;-74
2024/01/01 11:50:13;;;;;;;52.53;25.50;;;3.40;99.90;;;;;;5030601;28;20195;-73
2024/01/01 11:53:02;;;;;;;44.63;22.53;;;3.50;99.90;;;;;;5032424;28;20272;-73
2024/01/01 11:55:50;;;;;;;45.37;21.60;;;3.50;99.90;;;;;;5030463;28;20279;-73
2024/01/01 11:58:38;;;;;;;42.87;23.13;;;3.40;99.90;;;;;;5032211;28;20289;-73
2024/01/01 12:01:26;;;;;;;47.07;22.47;;;3.40;99.90;;;;;;5032163;28;20194;-73
2024/01/01 12:04:14;;;;;;;43.70;21.30;;;3.50;99.90;;;;;;5031688;28;20194;-73
2024/01/01 12:07:02;;;;;;;48.43;22.90;;;3.60;99.90;;;;;;5032972;28;20227;-73
2024/01/01 12:10:06;;;;;;;47.87;22.00;;;3.50;99.90;;;;;;5031366;28;20195;-73
2024/01/01 12:13:02;;;;;;;45.90;22.57;;;3.50;99.90;;;;;;5030949;28;20222;-72
2024/01/01 12:15:51;;;;;;;45.33;22.27;;;3.50;99.90;;;;;;5031867;28;20198;-73
2024/01/01 12:18:38;;;;;;;44.73;22.03;;;3.70;99.90;;;;;;5033731;28;20223;-73
2024/01/01 12:21:40;;;;;;;43.97;22.23;;;3.70;99.90;;;;;;5036091;28;20296;-73
2024/01/01 12:24:29;;;;;;;46.40;23.13;;;3.70;99.90;;;;;;5036861;28;20206;-75
2024/01/01 12:27:16;;;;;;;44.60;22.53;;;3.70;99.90;;;;;;5035776;28;20234;-78
2024/01/01 12:30:04;;;;;;;44.17;22.83;;;3.60;99.90;;;;;;5034822;28;20215;-78
2024/01/01 12:32:52;;;;;;;43.23;21.57;;;3.70;99.90;;;;;;5035792;28;20230;-78
2024/01/01 12:35:40;;;;;;;41.53;22.07;;;3.70;99.90;;;;;;5034832;28;20206;-78
2024/01/01 12:38:27;;;;;;;44.00;21.27;;;3.70;99.90;;;;;;5034902;28;20257;-78
2024/01/01 12:41:17;;;;;;;41.10;21.50;;;3.60;99.90;;;;;;5035537;28;20230;-79
2024/01/01 12:44:05;;;;;;;43.53;22.07;;;3.60;99.90;;;;;;5034674;28;20283;-78
2024/01/01 12:46:52;;;;;;;42.23;21.63;;;3.50;99.90;;;;;;5035334;28;20221;-79
2024/01/01 12:49:40;;;;;;;41.20;21.70;;;3.60;99.90;;;;;;5034739;28;20187;-78
2024/01/01 12:52:27;;;;;;;38.67;20.37;;;3.60;99.90;;;;;;5034888;28;20692;-79
2024/01/01 12:55:14;;;;;;;40.50;21.70;;;3.60;99.90;;;;;;5034944;28;20274;-78
2024/01/01 12:58:01;;;;;;;42.37;21.53;;;3.50;99.90;;;;;;5035145;28;20200;-73
2024/01/01 13:00:49;;;;;;;41.90;22.00;;;3.50;99.90;;;;;;5035104;28;20195;-73
2024/01/01 13:03:40;;;;;;;42.87;21.80;;;3.50;99.90;;;;;;5035132;28;20201;-74
2024/01/01 13:06:28;;;;;;;41.67;21.43;;;3.50;99.90;;;;;;5033790;28;20245;-73
2024/01/01 13:09:15;;;;;;;39.80;20.63;;;3.60;99.90;;;;;;5035054;28;20324;-73
2024/01/01 13:12:04;;;;;;;38.70;20.63;;;3.60;99.90;;;;;;5033640;28;20219;-73
2024/01/01 13:14:51;;;;;;;36.40;19.93;;;3.60;99.90;;;;;;5034012;28;20202;-73
2024/01/01 13:17:39;;;;;;;37.40;19.43;;;3.50;99.90;;;;;;5034445;28;20633;-73
2024/01/01 13:20:29;;;;;;;35.70;18.80;;;3.50;99.90;;;;;;5033205;28;20788;-73
2024/01/01 13:23:16;;;;;;;34.33;17.60;;;3.50;99.90;;;;;;5034116;28;20218;-73
2024/01/01 13:26:04;;;;;;;32.17;18.23;;;3.50;99.90;;;;;;5033341;28;20269;-74
2024/01/01 13:28:52;;;;;;;30.63;17.23;;;3.50;99.90;;;;;;5033091;28;20194;-74
2024/01/01 13:31:45;;;;;;;30.37;16.80;;;3.50;99.90;;;;;;5034756;28;20196;-73
2024/01/01 13:34:33;;;;;;;30.47;17.43;;;3.40;99.90;;;;;;5033158;28;20202;-73
2024/01/01 13:37:20;;;;;;;29.33;16.57;;;3.40;99.90;;;;;;5034435;28;20199;-73
2024/01/01 13:40:09;;;;;;;31.70;18.60;;;3.40;99.90;;;;;;5033467;28;20194;-74
2024/01/01 13:42:56;;;;;;;30.47;17.37;;;3.50;99.90;;;;;;5033787;28;20221;-73
2024/01/01 13:45:43;;;;;;;32.80;18.03;;;3.40;99.90;;;;;;5034397;28;20275;-73
2024/01/01 13:48:30;;;;;;;35.27;18.20;;;3.50;99.90;;;;;;5034132;28;20278;-72
2024/01/01 13:51:18;;;;;;;31.50;17.10;;;3.50;99.90;;;;;;5033208;28;20190;-73
2024/01/01 13:54:05;;;;;;;31.93;17.07;;;3.60;99.90;;;;;;5035069;28;20260;-73
2024/01/01 13:56:53;;;;;;;30.83;18.50;;;3.70;99.90;;;;;;5033750;28;20385;-73
2024/01/01 13:59:40;;;;;;;31.23;17.53;;;3.80;99.90;;;;;;5033673;28;20283;-73
2024/01/01 14:02:27;;;;;;;30.67;17.90;;;3.80;99.90;;;;;;5033310;28;20610;-73
2024/01/01 14:05:14;;;;;;;30.40;16.97;;;3.90;99.90;;;;;;5033786;28;20323;-74
2024/01/01 14:08:02;;;;;;;34.60;17.63;;;3.90;99.90;;;;;;5033777;28;20243;-74
2024/01/01 14:10:50;;;;;;;32.33;17.30;;;3.90;99.90;;;;;;5034046;28;20224;-73
2024/01/01 14:13:37;;;;;;;30.77;17.20;;;3.70;99.90;;;;;;5033870;28;20223;-74
2024/01/01 14:16:25;;;;;;;33.10;18.33;;;3.80;99.90;;;;;;5033799;28;20187;-74
2024/01/01 14:19:14;;;;;;;32.07;17.80;;;3.80;99.90;;;;;;5033676;28;20334;-73
2024/01/01 14:22:02;;;;;;;31.90;17.97;;;3.80;99.90;;;;;;5035346;28;20206;-74
2024/01/01 14:24:50;;;;;;;30.97;18.07;;;3.90;99.90;;;;;;5033215;28;20686;-72